createdAt,value
2023-03-02T00:01:49.571Z,52.13
2023-03-02T00:04:20.781Z,49.30
2023-03-02T00:06:49.664Z,51.22
2023-03-02T00:09:18.002Z,53.83
2023-03-02T00:11:46.403Z,45.75
2023-03-02T00:14:14.266Z,51.00
2023-03-02T00:16:42.150Z,63.42
2023-03-02T00:19:11.401Z,54.05
2023-03-02T00:21:39.325Z,51.50
2023-03-02T00:24:08.027Z,52.65
2023-03-02T00:26:36.099Z,54.92
2023-03-02T00:29:05.177Z,48.90
2023-03-02T00:31:33.875Z,49.30
2023-03-02T00:34:01.941Z,53.95
2023-03-02T00:36:31.558Z,57.40
2023-03-02T00:38:59.494Z,47.85
2023-03-02T00:41:27.464Z,50.33
2023-03-02T00:43:55.383Z,50.80
2023-03-02T00:46:25.302Z,57.25
2023-03-02T00:48:53.411Z,54.85
2023-03-02T00:51:21.809Z,52.35
2023-03-02T00:53:51.082Z,55.78
2023-03-02T00:56:19.410Z,54.38
2023-03-02T00:58:47.293Z,52.05
2023-03-02T01:01:17.686Z,55.80
2023-03-02T01:03:46.544Z,48.38
2023-03-02T01:06:19.202Z,57.88
2023-03-02T01:08:47.630Z,52.55
2023-03-02T01:11:19.889Z,55.55
2023-03-02T01:13:48.674Z,55.92
2023-03-02T01:16:16.938Z,51.20
2023-03-02T01:18:44.860Z,53.00
2023-03-02T01:21:15.742Z,52.95
2023-03-02T01:23:44.158Z,46.97
2023-03-02T01:26:12.984Z,50.85
2023-03-02T01:28:42.240Z,53.80
2023-03-02T01:31:10.271Z,51.50
2023-03-02T01:33:38.177Z,52.58
2023-03-02T01:36:06.842Z,56.47
2023-03-02T01:38:34.892Z,56.55
2023-03-02T01:41:02.832Z,54.88
2023-03-02T01:43:30.812Z,53.83
2023-03-02T01:46:02.555Z,53.40
2023-03-02T01:48:34.315Z,55.00
2023-03-02T01:51:03.481Z,50.88
2023-03-02T01:53:33.625Z,53.03
2023-03-02T01:56:03.383Z,51.50
2023-03-02T01:58:35.424Z,54.38
2023-03-02T02:01:05.480Z,53.05
2023-03-02T02:03:34.313Z,63.08
2023-03-02T02:06:10.231Z,56.00
2023-03-02T02:08:39.394Z,54.63
2023-03-02T02:11:07.736Z,58.03
2023-03-02T02:13:35.768Z,54.95
2023-03-02T02:16:06.206Z,54.88
2023-03-02T02:18:34.804Z,56.75
2023-03-02T02:21:03.133Z,51.97
2023-03-02T02:23:37.644Z,60.72
2023-03-02T02:26:12.974Z,51.55
2023-03-02T02:28:44.629Z,55.50
2023-03-02T02:31:17.211Z,55.88
2023-03-02T02:33:50.460Z,56.47
2023-03-02T02:36:22.523Z,50.78
2023-03-02T02:38:54.761Z,53.45
2023-03-02T02:41:27.458Z,59.25
2023-03-02T02:43:55.988Z,56.25
2023-03-02T02:46:25.625Z,58.33
2023-03-02T02:48:53.937Z,56.53
2023-03-02T02:51:26.439Z,54.20
2023-03-02T02:53:59.048Z,50.17
2023-03-02T02:56:31.646Z,63.17
2023-03-02T02:59:05.218Z,64.07
2023-03-02T03:01:35.497Z,54.33
2023-03-02T03:04:05.558Z,54.60
2023-03-02T03:06:38.448Z,56.92
2023-03-02T03:09:07.680Z,59.55
2023-03-02T03:11:38.779Z,57.20
2023-03-02T03:14:09.811Z,58.95
2023-03-02T03:16:40.051Z,61.47
2023-03-02T03:19:15.629Z,60.30
2023-03-02T03:21:43.571Z,57.45
2023-03-02T03:24:11.757Z,63.75
2023-03-02T03:26:41.052Z,53.67
2023-03-02T03:29:09.303Z,55.70
2023-03-02T03:31:37.590Z,53.30
2023-03-02T03:34:06.541Z,55.72
2023-03-02T03:36:35.312Z,60.45
2023-03-02T03:39:05.603Z,59.17
2023-03-02T03:41:33.895Z,63.25
2023-03-02T03:44:03.215Z,65.70
2023-03-02T03:46:31.595Z,63.00
2023-03-02T03:48:59.818Z,62.17
2023-03-02T03:51:28.130Z,66.32
2023-03-02T03:54:00.800Z,60.72
2023-03-02T03:56:29.182Z,63.80
2023-03-02T03:59:06.391Z,61.20
2023-03-02T04:01:37.775Z,63.88
2023-03-02T04:04:07.036Z,65.72
2023-03-02T04:06:35.458Z,61.17
2023-03-02T04:09:04.559Z,66.38
2023-03-02T04:11:33.267Z,61.60
2023-03-02T04:14:01.541Z,63.33
2023-03-02T04:16:31.643Z,62.85
2023-03-02T04:19:01.630Z,67.40
2023-03-02T04:21:30.051Z,57.55
2023-03-02T04:23:57.961Z,59.30
2023-03-02T04:26:26.919Z,63.30
2023-03-02T04:28:55.127Z,63.47
2023-03-02T04:31:23.105Z,59.80
2023-03-02T04:33:51.065Z,58.60
2023-03-02T04:36:20.652Z,65.15
2023-03-02T04:38:49.005Z,64.57
2023-03-02T04:41:17.689Z,68.20
2023-03-02T04:43:45.818Z,71.88
2023-03-02T04:46:16.459Z,61.33
2023-03-02T04:48:44.432Z,69.03
2023-03-02T04:51:24.090Z,72.60
2023-03-02T04:53:52.357Z,67.45
2023-03-02T04:56:20.308Z,68.35
2023-03-02T04:58:48.522Z,62.63
2023-03-02T05:01:17.714Z,66.53
2023-03-02T05:03:45.733Z,58.70
2023-03-02T05:06:13.869Z,64.70
2023-03-02T05:08:43.905Z,62.03
2023-03-02T05:11:15.869Z,70.65
2023-03-02T05:13:43.838Z,58.20
2023-03-02T05:16:11.771Z,66.88
2023-03-02T05:18:39.680Z,64.13
2023-03-02T05:21:07.731Z,66.00
2023-03-02T05:23:35.770Z,68.32
2023-03-02T05:26:05.368Z,62.97
2023-03-02T05:28:33.550Z,61.65
2023-03-02T05:31:02.375Z,61.80
2023-03-02T05:33:30.884Z,61.63
2023-03-02T05:35:58.896Z,69.57
2023-03-02T05:38:27.906Z,65.13
2023-03-02T05:40:55.848Z,68.35
2023-03-02T05:43:25.222Z,61.55
2023-03-02T05:45:53.283Z,71.20
2023-03-02T05:48:21.175Z,64.78
2023-03-02T05:50:49.106Z,69.95
2023-03-02T05:53:17.070Z,60.85
2023-03-02T05:55:45.003Z,65.10
2023-03-02T05:58:15.404Z,66.90
2023-03-02T06:00:44.875Z,69.32
2023-03-02T06:03:13.050Z,62.65
2023-03-02T06:05:41.138Z,69.68
2023-03-02T06:08:09.103Z,66.22
2023-03-02T06:10:37.271Z,64.93
2023-03-02T06:13:05.255Z,60.75
2023-03-02T06:15:33.194Z,63.58
2023-03-02T06:18:02.404Z,64.72
2023-03-02T06:20:30.400Z,59.83
2023-03-02T06:22:58.594Z,72.90
2023-03-02T06:25:26.708Z,63.97
2023-03-02T06:27:54.631Z,71.68
2023-03-02T06:30:24.378Z,64.00
2023-03-02T06:32:52.804Z,71.60
2023-03-02T06:35:23.951Z,76.35
2023-03-02T06:37:52.042Z,68.65
2023-03-02T06:40:21.647Z,62.60
2023-03-02T06:42:49.762Z,63.25
2023-03-02T06:45:17.976Z,62.22
2023-03-02T06:47:45.872Z,62.35
2023-03-02T06:50:13.822Z,66.35
2023-03-02T06:52:43.002Z,62.30
2023-03-02T06:55:11.537Z,66.60
2023-03-02T06:57:39.460Z,66.35
2023-03-02T07:00:15.488Z,63.70
2023-03-02T07:02:43.394Z,69.22
2023-03-02T07:05:11.335Z,69.50
2023-03-02T07:07:39.325Z,63.10
2023-03-02T07:10:10.836Z,74.18
2023-03-02T07:12:38.775Z,66.15
2023-03-02T07:15:12.418Z,72.68
2023-03-02T07:17:42.713Z,61.10
2023-03-02T07:20:12.495Z,65.40
2023-03-02T07:22:41.257Z,59.60
2023-03-02T07:25:12.451Z,70.05
2023-03-02T07:27:40.853Z,58.42
2023-03-02T07:30:10.110Z,59.30
2023-03-02T07:32:38.034Z,63.63
2023-03-02T07:35:06.601Z,58.47
2023-03-02T07:37:34.552Z,61.63
2023-03-02T07:40:02.560Z,58.38
2023-03-02T07:42:31.756Z,58.60
2023-03-02T07:44:59.871Z,56.50
2023-03-02T07:47:27.993Z,58.60
2023-03-02T07:49:56.007Z,58.83
2023-03-02T07:52:24.110Z,58.85
2023-03-02T07:54:52.140Z,57.58
2023-03-02T07:57:20.085Z,54.33
2023-03-02T07:59:49.533Z,59.38
2023-03-02T08:02:20.272Z,58.45
2023-03-02T08:04:48.382Z,58.67
2023-03-02T08:07:16.356Z,59.83
2023-03-02T08:09:44.222Z,58.63
2023-03-02T08:12:12.141Z,55.65
2023-03-02T08:14:40.226Z,50.80
2023-03-02T08:17:10.013Z,50.90
2023-03-02T08:19:38.130Z,55.30
2023-03-02T08:22:06.018Z,52.28
2023-03-02T08:24:33.900Z,51.95
2023-03-02T08:27:02.763Z,50.72
2023-03-02T08:29:30.879Z,53.10
2023-03-02T08:31:59.668Z,53.22
2023-03-02T08:34:29.003Z,59.67
2023-03-02T08:36:56.917Z,54.08
2023-03-02T08:39:24.937Z,47.28
2023-03-02T08:41:52.990Z,48.88
2023-03-02T08:44:22.078Z,53.63
2023-03-02T08:46:50.455Z,51.53
2023-03-02T08:49:18.759Z,51.38
2023-03-02T08:51:49.052Z,48.67
2023-03-02T08:54:17.194Z,52.70
2023-03-02T08:56:45.084Z,55.17
2023-03-02T08:59:14.411Z,54.70
2023-03-02T09:01:43.403Z,50.72
2023-03-02T09:04:12.282Z,54.88
2023-03-02T09:06:42.578Z,60.35
2023-03-02T09:09:13.141Z,53.97
2023-03-02T09:11:42.292Z,48.70
2023-03-02T09:14:11.115Z,55.28
2023-03-02T09:16:39.107Z,51.90
2023-03-02T09:19:07.607Z,56.95
2023-03-02T09:21:35.812Z,56.78
2023-03-02T09:24:03.827Z,52.67
2023-03-02T09:26:34.034Z,55.78
2023-03-02T09:29:01.977Z,54.10
2023-03-02T09:31:30.574Z,47.63
2023-03-02T09:33:58.621Z,53.47
2023-03-02T09:36:28.083Z,51.13
2023-03-02T09:38:56.079Z,53.20
2023-03-02T09:41:58.874Z,55.85
2023-03-02T09:44:51.453Z,56.47
2023-03-02T09:47:35.605Z,49.95
2023-03-02T09:50:12.626Z,49.47
2023-03-02T09:52:48.665Z,51.40
2023-03-02T09:55:19.292Z,47.95
2023-03-02T09:57:49.205Z,44.28
2023-03-02T10:00:25.754Z,49.30
2023-03-02T10:03:05.105Z,47.55
2023-03-02T10:05:41.433Z,53.85
2023-03-02T10:08:14.008Z,49.88
2023-03-02T10:10:46.176Z,48.70
2023-03-02T10:13:24.240Z,57.17
2023-03-02T10:16:08.487Z,50.92
2023-03-02T10:18:42.101Z,53.78
2023-03-02T10:21:21.539Z,43.65
2023-03-02T10:23:57.338Z,61.55
2023-03-02T10:26:40.603Z,55.35
2023-03-02T10:29:25.962Z,54.75
2023-03-02T10:31:59.915Z,50.08
2023-03-02T10:34:30.559Z,52.05
2023-03-02T10:36:59.257Z,45.70
2023-03-02T10:39:27.145Z,48.70
2023-03-02T10:42:00.396Z,43.88
2023-03-02T10:44:32.351Z,52.00
2023-03-02T10:47:00.372Z,47.28
2023-03-02T10:49:31.600Z,57.92
2023-03-02T10:52:01.631Z,52.63
2023-03-02T10:54:31.605Z,45.92
2023-03-02T10:57:01.814Z,49.10
2023-03-02T10:59:43.192Z,41.00
2023-03-02T11:02:18.733Z,45.75
2023-03-02T11:04:47.008Z,49.53
2023-03-02T11:07:18.431Z,43.00
2023-03-02T11:10:01.762Z,45.42
2023-03-02T11:12:31.392Z,47.78
2023-03-02T11:15:25.150Z,47.80
2023-03-02T11:18:00.802Z,56.25
2023-03-02T11:20:33.458Z,58.10
2023-03-02T11:23:15.588Z,44.95
2023-03-02T11:25:49.469Z,44.00
2023-03-02T11:28:30.379Z,48.70
2023-03-02T11:31:02.144Z,51.47
2023-03-02T11:33:36.275Z,45.00
2023-03-02T11:36:08.909Z,47.55
2023-03-02T11:38:45.329Z,44.47
2023-03-02T11:41:26.805Z,47.65
2023-03-02T11:43:55.574Z,48.38
2023-03-02T11:46:27.772Z,48.70
2023-03-02T11:48:58.476Z,44.22
2023-03-02T11:51:29.441Z,44.72
2023-03-02T11:54:00.369Z,47.28
2023-03-02T11:56:31.511Z,50.05
2023-03-02T11:59:01.715Z,45.28
2023-03-02T12:01:32.271Z,44.97
2023-03-02T12:04:09.110Z,43.17
2023-03-02T12:06:40.289Z,44.28
2023-03-02T12:09:25.000Z,41.70
2023-03-02T12:11:58.168Z,43.97
2023-03-02T12:14:29.878Z,45.72
2023-03-02T12:17:22.192Z,47.40
2023-03-02T12:19:52.592Z,43.88
2023-03-02T12:22:30.872Z,42.13
2023-03-02T12:25:07.063Z,44.85
2023-03-02T12:27:38.365Z,45.33
2023-03-02T12:30:28.303Z,40.95
2023-03-02T12:33:20.075Z,46.22
2023-03-02T12:35:50.061Z,51.40
2023-03-02T12:38:26.951Z,40.10
2023-03-02T12:41:14.466Z,48.08
2023-03-02T12:43:48.489Z,42.05
2023-03-02T12:46:29.017Z,42.95
2023-03-02T12:49:45.593Z,46.00
2023-03-02T12:52:24.162Z,41.63
2023-03-02T12:55:06.735Z,41.40
2023-03-02T12:57:38.474Z,45.88
2023-03-02T13:00:17.756Z,41.42
2023-03-02T13:02:48.856Z,46.97
2023-03-02T13:05:22.515Z,44.28
2023-03-02T13:07:58.592Z,41.17
2023-03-02T13:10:31.185Z,43.45
2023-03-02T13:13:00.372Z,37.35
2023-03-02T13:15:28.459Z,37.15
2023-03-02T13:17:58.342Z,29.98
2023-03-02T13:20:30.142Z,28.08
2023-03-02T13:22:58.502Z,33.05
2023-03-02T13:25:28.694Z,31.38
2023-03-02T13:27:58.246Z,30.60
2023-03-02T13:30:29.350Z,29.48
2023-03-02T13:33:03.162Z,29.80
2023-03-02T13:35:37.985Z,32.15
2023-03-02T13:38:14.975Z,29.05
2023-03-02T13:40:44.791Z,27.50
2023-03-02T13:43:34.480Z,26.27
2023-03-02T13:46:03.665Z,26.00
2023-03-02T13:48:32.102Z,27.90
2023-03-02T13:51:03.899Z,29.95
2023-03-02T13:53:34.918Z,27.35
2023-03-02T13:56:02.998Z,33.42
2023-03-02T13:58:38.222Z,29.05
2023-03-02T14:01:07.635Z,30.00
2023-03-02T14:03:35.619Z,31.23
2023-03-02T14:06:06.034Z,38.35
2023-03-02T14:08:33.928Z,32.17
2023-03-02T14:11:03.774Z,29.38
2023-03-02T14:13:37.922Z,31.42
2023-03-02T14:16:06.692Z,30.63
2023-03-02T14:18:40.134Z,39.90
2023-03-02T14:21:13.648Z,30.13
2023-03-02T14:23:41.953Z,28.45
2023-03-02T14:26:28.102Z,30.90
2023-03-02T14:29:04.921Z,35.80
2023-03-02T14:31:33.558Z,37.83
2023-03-02T14:34:01.672Z,31.83
2023-03-02T14:36:34.482Z,30.25
2023-03-02T14:39:06.509Z,34.97
2023-03-02T14:41:51.262Z,36.38
2023-03-02T14:44:21.112Z,38.95
2023-03-02T14:46:49.030Z,40.75
2023-03-02T14:49:16.994Z,33.38
2023-03-02T14:51:59.095Z,39.83
2023-03-02T14:54:27.450Z,33.90
2023-03-02T14:56:55.434Z,42.47
2023-03-02T14:59:23.356Z,42.83
2023-03-02T15:01:51.377Z,39.72
2023-03-02T15:04:19.360Z,37.45
2023-03-02T15:06:48.683Z,36.75
2023-03-02T15:09:16.664Z,36.13
2023-03-02T15:11:44.650Z,40.80
2023-03-02T15:14:12.525Z,42.88
2023-03-02T15:16:42.755Z,45.65
2023-03-02T15:19:10.733Z,43.85
2023-03-02T15:21:41.558Z,41.05
2023-03-02T15:24:11.222Z,44.88
2023-03-02T15:26:41.050Z,39.97
2023-03-02T15:29:09.504Z,43.63
2023-03-02T15:31:37.475Z,45.92
2023-03-02T15:34:05.692Z,44.83
2023-03-02T15:36:33.692Z,44.88
2023-03-02T15:39:01.876Z,47.85
2023-03-02T15:41:31.267Z,44.22
2023-03-02T15:43:59.310Z,50.05
2023-03-02T15:46:27.356Z,44.67
2023-03-02T15:48:55.416Z,42.20
2023-03-02T15:51:23.935Z,43.35
2023-03-02T15:53:51.985Z,39.22
2023-03-02T15:56:19.906Z,42.30
2023-03-02T15:58:50.293Z,41.65
2023-03-02T16:01:18.260Z,45.13
2023-03-02T16:03:46.463Z,42.83
2023-03-02T16:06:15.707Z,44.28
2023-03-02T16:08:43.674Z,40.38
2023-03-02T16:11:18.656Z,45.83
2023-03-02T16:13:46.752Z,43.40
2023-03-02T16:16:16.126Z,47.60
2023-03-02T16:18:44.111Z,47.30
2023-03-02T16:21:13.213Z,49.25
2023-03-02T16:23:41.207Z,49.00
2023-03-02T16:26:10.421Z,48.88
2023-03-02T16:28:38.615Z,49.75
2023-03-02T16:31:07.241Z,47.70
2023-03-02T16:33:36.770Z,46.40
2023-03-02T16:36:05.034Z,53.30
2023-03-02T16:38:33.382Z,50.20
2023-03-02T16:41:02.032Z,45.95
2023-03-02T16:43:30.044Z,52.70
2023-03-02T16:45:58.102Z,55.92
2023-03-02T16:48:26.134Z,59.05
2023-03-02T16:50:58.846Z,51.13
2023-03-02T16:53:26.787Z,49.45
2023-03-02T16:55:54.711Z,53.95
2023-03-02T16:58:22.628Z,52.20
2023-03-02T17:00:50.689Z,49.65
2023-03-02T17:03:18.986Z,49.88
2023-03-02T17:05:46.969Z,53.15
2023-03-02T17:08:17.682Z,52.97
2023-03-02T17:10:45.937Z,49.80
2023-03-02T17:13:15.566Z,61.92
2023-03-02T17:15:43.802Z,63.08
2023-03-02T17:18:12.030Z,53.78
2023-03-02T17:20:40.080Z,58.70
2023-03-02T17:23:08.204Z,69.80
2023-03-02T17:25:37.456Z,56.35
2023-03-02T17:28:05.782Z,57.88
2023-03-02T17:30:34.209Z,56.70
2023-03-02T17:33:02.124Z,60.45
2023-03-02T17:35:30.052Z,54.42
2023-03-02T17:37:58.026Z,60.47
2023-03-02T17:40:26.024Z,59.05
2023-03-02T17:42:57.676Z,57.17
2023-03-02T17:45:28.195Z,62.40
2023-03-02T17:47:58.002Z,60.13
2023-03-02T17:50:26.848Z,70.53
2023-03-02T17:52:55.322Z,62.50
2023-03-02T17:55:23.260Z,59.80
2023-03-02T17:57:51.215Z,58.50
2023-03-02T18:00:22.971Z,62.67
2023-03-02T18:02:51.701Z,62.20
2023-03-02T18:05:20.905Z,64.55
2023-03-02T18:07:48.906Z,66.13
2023-03-02T18:10:17.087Z,55.25
2023-03-02T18:12:45.228Z,60.45
2023-03-02T18:15:14.259Z,62.15
2023-03-02T18:17:43.555Z,62.72
2023-03-02T18:20:12.623Z,67.13
2023-03-02T18:22:40.888Z,61.95
2023-03-02T18:25:09.572Z,71.70
2023-03-02T18:27:40.073Z,64.47
2023-03-02T18:30:09.309Z,67.32
2023-03-02T18:32:37.275Z,63.95
2023-03-02T18:35:07.588Z,59.65
2023-03-02T18:37:35.607Z,55.67
2023-03-02T18:40:03.952Z,59.05
2023-03-02T18:42:32.030Z,61.38
2023-03-02T18:45:00.175Z,65.80
2023-03-02T18:47:28.644Z,65.82
2023-03-02T18:49:57.323Z,61.38
2023-03-02T18:52:26.780Z,62.42
2023-03-02T18:54:57.738Z,66.88
2023-03-02T18:57:26.316Z,64.03
2023-03-02T18:59:54.288Z,60.25
2023-03-02T19:02:22.233Z,66.20
2023-03-02T19:04:50.201Z,65.22
2023-03-02T19:07:18.162Z,67.68
2023-03-02T19:09:47.488Z,63.28
2023-03-02T19:12:15.782Z,60.05
2023-03-02T19:14:43.737Z,66.90
2023-03-02T19:17:11.809Z,68.63
2023-03-02T19:19:41.302Z,64.25
2023-03-02T19:22:11.195Z,64.78
2023-03-02T19:24:40.435Z,67.15
2023-03-02T19:27:11.532Z,67.38
2023-03-02T19:29:39.830Z,67.15
2023-03-02T19:32:11.087Z,60.95
2023-03-02T19:34:39.411Z,59.75
2023-03-02T19:37:07.304Z,69.88
2023-03-02T19:39:35.290Z,61.97
2023-03-02T19:42:03.255Z,66.18
2023-03-02T19:44:33.504Z,62.83
2023-03-02T19:47:01.474Z,67.55
2023-03-02T19:49:29.476Z,62.55
2023-03-02T19:51:59.112Z,56.30
2023-03-02T19:54:27.570Z,63.97
2023-03-02T19:56:55.548Z,63.13
2023-03-02T19:59:25.064Z,61.25
2023-03-02T20:01:55.163Z,62.40
2023-03-02T20:04:23.246Z,64.65
2023-03-02T20:06:51.108Z,64.85
2023-03-02T20:09:20.203Z,63.10
2023-03-02T20:11:48.529Z,60.20
2023-03-02T20:14:31.232Z,66.05
2023-03-02T20:17:02.332Z,72.07
2023-03-02T20:19:30.322Z,70.50
2023-03-02T20:21:58.245Z,72.13
2023-03-02T20:24:26.135Z,62.55
2023-03-02T20:26:54.093Z,69.00
2023-03-02T20:29:22.083Z,64.05
2023-03-02T20:31:50.238Z,69.38
2023-03-02T20:34:19.508Z,62.50
2023-03-02T20:36:47.770Z,62.95
2023-03-02T20:39:18.957Z,67.55
2023-03-02T20:41:47.023Z,71.60
2023-03-02T20:44:15.053Z,66.90
2023-03-02T20:46:46.104Z,66.65
2023-03-02T20:49:16.228Z,67.43
2023-03-02T20:51:49.345Z,70.82
2023-03-02T20:54:17.541Z,64.95
2023-03-02T20:56:46.540Z,72.30
2023-03-02T20:59:14.873Z,67.22
2023-03-02T21:01:42.911Z,70.00
2023-03-02T21:04:10.985Z,72.63
2023-03-02T21:06:39.345Z,69.22
2023-03-02T21:09:10.041Z,73.05
2023-03-02T21:11:38.568Z,70.75
2023-03-02T21:14:06.812Z,70.38
2023-03-02T21:16:39.289Z,74.38
2023-03-02T21:19:09.376Z,73.18
2023-03-02T21:21:41.759Z,74.30
2023-03-02T21:24:16.673Z,70.65
2023-03-02T21:26:45.400Z,71.97
2023-03-02T21:29:14.391Z,77.28
2023-03-02T21:31:43.843Z,73.53
2023-03-02T21:34:12.472Z,71.30
2023-03-02T21:36:41.119Z,71.70
2023-03-02T21:39:11.897Z,72.20
2023-03-02T21:41:40.287Z,74.00
2023-03-02T21:44:08.417Z,74.50
2023-03-02T21:46:37.929Z,76.20
2023-03-02T21:49:05.963Z,69.53
2023-03-02T21:51:34.808Z,69.22
2023-03-02T21:54:02.893Z,73.55
2023-03-02T21:56:32.232Z,72.82
2023-03-02T21:59:00.152Z,74.40
2023-03-02T22:01:29.777Z,64.00
2023-03-02T22:03:57.824Z,71.00
2023-03-02T22:06:27.542Z,74.75
2023-03-02T22:08:55.687Z,70.18
2023-03-02T22:11:25.932Z,70.60
2023-03-02T22:13:57.535Z,68.80
2023-03-02T22:16:27.650Z,67.10
2023-03-02T22:18:57.341Z,70.97
2023-03-02T22:21:30.007Z,76.28
2023-03-02T22:24:21.303Z,69.28
2023-03-02T22:26:54.099Z,81.93
2023-03-02T22:29:26.644Z,74.32
2023-03-02T22:31:56.513Z,67.65
2023-03-02T22:34:26.309Z,65.03
2023-03-02T22:36:59.817Z,72.63
2023-03-02T22:39:31.615Z,66.78
2023-03-02T22:42:07.365Z,73.85
2023-03-02T22:44:37.039Z,71.65
2023-03-02T22:47:07.453Z,75.30
2023-03-02T22:49:35.322Z,78.90
2023-03-02T22:52:12.202Z,70.53
2023-03-02T22:54:40.139Z,66.78
2023-03-02T22:57:18.582Z,75.38
2023-03-02T22:59:47.811Z,74.03
2023-03-02T23:02:22.375Z,70.93
2023-03-02T23:04:50.605Z,71.97
2023-03-02T23:07:21.452Z,73.00
2023-03-02T23:09:49.750Z,79.28
2023-03-02T23:12:22.873Z,74.97
2023-03-02T23:14:54.198Z,74.78
2023-03-02T23:17:28.012Z,75.47
2023-03-02T23:19:57.282Z,76.85
2023-03-02T23:22:28.477Z,74.05
2023-03-02T23:24:56.651Z,75.20
2023-03-02T23:27:24.805Z,75.82
2023-03-02T23:29:54.215Z,71.68
2023-03-02T23:32:22.309Z,75.50
2023-03-02T23:34:50.308Z,72.15
2023-03-02T23:37:18.264Z,83.07
2023-03-02T23:39:46.296Z,79.13
2023-03-02T23:42:14.294Z,76.13
2023-03-02T23:44:42.180Z,74.93
2023-03-02T23:47:11.426Z,74.97
2023-03-02T23:49:39.718Z,69.57
2023-03-02T23:52:07.625Z,73.35
2023-03-02T23:54:35.495Z,73.63
2023-03-02T23:57:03.400Z,74.03
2023-03-02T23:59:31.401Z,77.78
